AirNav   Everest Fuels
 
 1093 users online  

63CL G3 Ranch Airport
Capay, California, USA

GOING TO CAPAY?


FAA INFORMATION EFFECTIVE 01 DECEMBER 2022

Location

FAA Identifier: 63CL
Lat/Long: 38-42-59.6520N 122-08-18.9040W
38-42.994200N 122-08.315067W
38.7165700,-122.1385844
(estimated)
Elevation: 360 ft. / 110 m (estimated)
Variation: 16E (1985)
From city: 4 miles W of CAPAY, CA
Time zone: UTC -8 (UTC -7 during Daylight Saving Time)
Zip code: 95607

Airport Operations

Airport use: Private use. Permission required prior to landing
Activation date: 08/1970
Control tower: no
ARTCC: OAKLAND CENTER
FSS: RANCHO MURIETA FLIGHT SERVICE STATION
Attendance: UNATNDD
Wind indicator: no
Segmented circle: no

Airport Communications

WX AWOS-3P at DWA (16 nm SE): 125.775 (530-750-2759)
WX AWOS-3 at EDU (20 nm SE): 119.025 (530-754-6839)

Nearby radio navigation aids

VOR radial/distance  VOR name  Freq  Var
ILAr176/21.9WILLIAMS VORTAC114.4018E
SACr284/32.0SACRAMENTO VORTAC115.2017E
SGDr002/34.1SCAGGS ISLAND VORTAC112.1017E
MCCr258/34.5MC CLELLAN VOR/DME109.2017E
MYVr213/35.0MARYSVILLE VOR/DME110.8016E

Airport Services

Airframe service: NONE
Powerplant service: NONE

Runway Information

Runway NW/SE

Dimensions: 2800 x 110 ft. / 853 x 34 m
Surface: turf
RUNWAY NW  RUNWAY SE
Traffic pattern: leftleft
Obstructions: plinepline, 60 ft. from runway

Airport Ownership and Management from official FAA records

Ownership: Privately-owned
Owner: C. M. GORDON
P. O. BOX 125
BROOKS, CA 95606
Phone (530) 796-3188
Manager: BOB GORDON
P. O. BOX 113
BROOKS, CA 95606
Phone (530) 908-9241

Additional Remarks

FOR CD CTC OAKLAND ARTCC AT 510-745-3380.

Instrument Procedures

There are no published instrument procedures at 63CL.

Some nearby airports with instrument procedures:

O41 - Watts-Woodland Airport (13 nm E)
KDWA - Yolo County Airport (16 nm SE)
KEDU - University Airport (20 nm SE)
KVCB - Nut Tree Airport (22 nm S)
KSMF - Sacramento International Airport (26 nm E)
 
Loc | Ops | Rwys | IFR | FBO | Links
Com | Nav | Svcs | Stats | Notes

Sonoma Jet Center
 
Area around 63CL (G3 Ranch Airport)
 
Road maps at: MapQuest Bing Google
 
Aerial photo
No photo
 
Sectional chart

 
Airport distance calculator
Flying to G3 Ranch Airport? Find the distance to fly.

From to 63CL

Sunrise and sunset
Times for 06-Dec-2022
 Local
(UTC-8)
 Zulu
(UTC)
Morning civil twilight06:4414:44
Sunrise07:1315:13
Sunset16:4600:46
Evening civil twilight17:1501:15

Current date and time
Zulu (UTC)  07-Dec-2022 02:48:56
Local (UTC-8)  06-Dec-2022 18:48:56
 
METAR
KDWA 
16nm SE 
070235Z AUTO 30004KT 10SM SCT031 BKN038 OVC050 08/06 A3010 RMK AO2
KEDU 
20nm SE 
070235Z AUTO 00000KT 10SM CLR 09/06 A3009 RMK AO1
KVCB 
22nm SE 
070153Z AUTO 33003KT 10SM CLR 09/05 A3009 RMK AO2 SLP188 T00890050
KSMF 
25nm E 
070153Z 33006KT 10SM FEW100 11/06 A3007 RMK AO2 SLP180 T01060061
KSUU 
29nm S 
070155Z AUTO 36007KT 10SM CLR 09/04 A3006 RMK AO2 SLP186 T00860044 $
TAF
KSMF 
25nm E 
061734Z 0618/0718 33007KT P6SM SCT020 BKN050 BKN100 FM062300 VRB05KT P6SM SCT250
KSUU 
29nm S 
062349Z 0623/0801 01010G15KT 9999 BKN050 QNH3006INS BECMG 0710/0711 23006KT 4800 BR SKC QNH3013INS TEMPO 0711/0717 0800 FG BECMG 0717/0718 VRB06KT 9999 NSW FEW200 QNH3021INS TX14/0623Z TN01/0714Z
NOTAMs
Click for the latest NOTAMs
NOTAMs are issued by the DoD/FAA and will open in a separate window not controlled by AirNav.

 

 
 

Would you like to see your business listed on this page?

 If your business provides an interesting product or service to pilots, flight crews, aircraft, or users of the G3 Ranch Airport, you should consider listing it here.  To start the listing process, click on the button below
 
Add a business
 

Other Pages about G3 Ranch Airport

Update a link
 
Copyright © AirNav, LLC. All rights reserved. Privacy Policy  Contact